NCAR-RAP Real-Time Weather Data

Output produced by METARs form (23 February 2020  02:28 UTC)
found at http://weather.rap.ucar.edu/surface/
 
KORD 230151Z 20011KT 10SM BKN210 BKN250 07/M04 A3007 RMK AO2 SLP190 T00671039
KORD 230051Z 19011G20KT 10SM BKN220 BKN250 07/M04 A3009 RMK AO2 SLP194 T00721039
KORD 222351Z 20011KT 10SM BKN220 BKN250 08/M03 A3008 RMK AO2 SLP193 T00781033 10106 20072 57007
KORD 222251Z 21013G19KT 10SM BKN250 09/M03 A3009 RMK AO2 SLP193 T00941028
KORD 222151Z 21017G24KT 10SM BKN250 10/M03 A3011 RMK AO2 SLP199 T01001028
KORD 222051Z 21014G23KT 10SM SCT250 10/M03 A3011 RMK AO2 SLP200 T01001033 56026
KORD 221951Z 22015G21KT 10SM FEW250 09/M04 A3013 RMK AO2 SLP206 T00941039
KORD 221851Z 21011KT 10SM FEW250 09/M05 A3015 RMK AO2 SLP216 T00891050
KORD 221751Z 22013KT 10SM FEW250 07/M06 A3018 RMK AO2 SLP227 T00721061 10072 21022 58012
KORD 221651Z 23013KT 10SM CLR 06/M07 A3020 RMK AO2 SLP233 T00561067
KORD 221551Z 23010G19KT 10SM CLR 03/M08 A3021 RMK AO2 SLP236 T00331083
KORD 221451Z 22012G19KT 10SM CLR 01/M09 A3022 RMK AO2 SLP240 T00111089 58003
KORD 221351Z 22012KT 10SM CLR M01/M09 A3023 RMK AO2 SLP245 T10061094
KORD 221251Z 22011KT 10SM CLR M02/M09 A3023 RMK AO2 SLP244 T10221094
KORD 221151Z 21010KT 10SM CLR M02/M09 A3023 RMK AO2 SLP244 T10221094 11011 21022 56006
KORD 221051Z 22008KT 10SM CLR M02/M09 A3023 RMK AO2 SLP244 T10221094
KORD 220951Z 21009KT 10SM CLR M02/M09 A3023 RMK AO2 SLP245 T10171094
KORD 220851Z 22014KT 10SM CLR M01/M09 A3025 RMK AO2 SLP249 T10111094 57014
KORD 220751Z 22012KT 10SM CLR M01/M09 A3026 RMK AO2 SLP254 T10111094
KORD 220651Z 22010KT 10SM CLR M01/M09 A3027 RMK AO2 SLP258 T10111089
KORD 220551Z 22012KT 10SM FEW250 M01/M09 A3029 RMK AO2 PK WND 23026/0452 SLP264 T10111089 10011 21011 400331111 58010
KORD 220451Z 23014KT 10SM SCT250 M01/M08 A3030 RMK AO2 SLP270 T10061083
KORD 220351Z 22015G24KT 10SM SCT250 M01/M08 A3031 RMK AO2 PK WND 21029/0332 SLP273 T10061083
KORD 220251Z 22014G25KT 10SM FEW250 00/M08 A3032 RMK AO2 PK WND 20027/0153 SLP276 T00001083 55003
KORD 220151Z 21016G26KT 10SM FEW250 01/M09 A3030 RMK AO2 PK WND 20027/0139 SLP269 T00061089
KORD 220051Z 21014G23KT 10SM CLR 01/M09 A3032 RMK AO2 SLP277 T00061094
KORD 212351Z 22014G23KT 10SM FEW250 02/M11 A3033 RMK AO2 PK WND 22029/2325 SLP280 T00171106 10033 20000 56022
KORD 212251Z 22011G26KT 10SM FEW250 02/M11 A3035 RMK AO2 PK WND 24031/2154 SLP288 T00221111
KORD 212151Z 22013G26KT 10SM CLR 03/M12 A3037 RMK AO2 PK WND 21031/2102 SLP294 T00281122
KORD 212051Z 21017G26KT 10SM CLR 03/M13 A3040 RMK AO2 PK WND 23026/2042 SLP303 T00281128 58039
KORD 211951Z 21016G24KT 10SM CLR 02/M12 A3044 RMK AO2 SLP317 T00221122
KORD 211851Z 22013G21KT 10SM CLR 01/M12 A3048 RMK AO2 SLP331 T00111122
KORD 211751Z 23014G20KT 10SM CLR 00/M13 A3051 RMK AO2 SLP344 T00001128 10000 21106 58017
KORD 211651Z 23012G19KT 10SM CLR M01/M13 A3054 RMK AO2 SLP355 T10111133
KORD 211551Z 23011G19KT 10SM CLR M03/M14 A3055 RMK AO2 SLP357 T10331144
KORD 211451Z 23011KT 10SM CLR M06/M15 A3057 RMK AO2 SLP363 T10561150 56006
KORD 211351Z 23008KT 10SM CLR M08/M16 A3057 RMK AO2 SLP365 T10831156
KORD 211251Z 23007KT 10SM CLR M10/M16 A3057 RMK AO2 SLP364 T11001161
KORD 211151Z 23006KT 10SM CLR M11/M17 A3059 RMK AO2 SLP371 T11061167 11100 21111 56007
KORD 211051Z 22004KT 10SM CLR M11/M17 A3059 RMK AO2 SLP370 T11061172
KORD 210951Z 24006KT 10SM CLR M11/M17 A3059 RMK AO2 SLP373 T11061172
KORD 210851Z 23005KT 10SM CLR M10/M17 A3061 RMK AO2 SLP377 T11001172 56014
KORD 210751Z 25006KT 10SM CLR M10/M18 A3062 RMK AO2 SLP381 T11001178
KORD 210651Z 27008KT 10SM CLR M10/M18 A3063 RMK AO2 SLP384 T11001178
KORD 210551Z 24005KT 10SM CLR M10/M17 A3065 RMK AO2 SLP391 T11001172 11067 21100 410391128 58008
KORD 210451Z 26004KT 10SM CLR M10/M17 A3066 RMK AO2 SLP397 T11001172
KORD 210351Z 27007KT 10SM CLR M09/M17 A3067 RMK AO2 SLP399 T10941172
KORD 210251Z 28005KT 10SM CLR M09/M18 A3067 RMK AO2 SLP400 T10891183 51005